MOV9550 UNAA-UNKL
Flight info
| Callsign | MOV9550 |
|---|---|
| Flight time | 0h 35m |
| Altitude | 27000 |
| Route | SELTI1D SELTI B951 ROGMA ROGMA2Z |
| Aircraft | B752/M-SDFGHIRWY/LB1 |
Departure
| Time | 2026-05-08 15:14 |
|---|---|
| Airport | Abakan International Airport (UNAA) |
Arrival
| Time | 2026-05-08 15:49 |
|---|---|
| Airport | Krasnoyarsk International Airport (UNKL) |
| Time | Latitude | Longitude | Altitude | Speed | Heading |
|---|---|---|---|---|---|
| 2026-05-08 14:40 | 53.74997 | 91.39814 | 842 ft | 0 kts | 341° |
| 2026-05-08 15:05 | 53.74998 | 91.39813 | 841 ft | 0 kts | 341° |
| 2026-05-08 15:06 | 53.74997 | 91.39813 | 841 ft | 0 kts | 341° |
| 2026-05-08 15:09 | 53.74998 | 91.39813 | 841 ft | 0 kts | 341° |
| 2026-05-08 15:09 | 53.75015 | 91.39803 | 841 ft | 3 kts | 341° |
| 2026-05-08 15:09 | 53.75024 | 91.39798 | 841 ft | 3 kts | 341° |
| 2026-05-08 15:10 | 53.75036 | 91.39784 | 841 ft | 1 kts | 302° |
| 2026-05-08 15:10 | 53.75037 | 91.39752 | 841 ft | 4 kts | 264° |
| 2026-05-08 15:10 | 53.75043 | 91.39697 | 841 ft | 4 kts | 306° |
| 2026-05-08 15:10 | 53.75077 | 91.39671 | 841 ft | 6 kts | 342° |
| 2026-05-08 15:11 | 53.75124 | 91.39645 | 841 ft | 6 kts | 342° |
| 2026-05-08 15:11 | 53.75160 | 91.39625 | 841 ft | 6 kts | 341° |
| 2026-05-08 15:11 | 53.75205 | 91.39601 | 841 ft | 7 kts | 341° |
| 2026-05-08 15:11 | 53.75250 | 91.39565 | 841 ft | 6 kts | 313° |
| 2026-05-08 15:12 | 53.75251 | 91.39498 | 841 ft | 6 kts | 236° |
| 2026-05-08 15:12 | 53.75219 | 91.39464 | 841 ft | 3 kts | 204° |
| 2026-05-08 15:12 | 53.75188 | 91.39440 | 841 ft | 6 kts | 204° |
| 2026-05-08 15:12 | 53.75147 | 91.39406 | 841 ft | 7 kts | 207° |
| 2026-05-08 15:13 | 53.75098 | 91.39366 | 841 ft | 11 kts | 205° |
| 2026-05-08 15:13 | 53.75001 | 91.39291 | 841 ft | 28 kts | 204° |
| 2026-05-08 15:13 | 53.74622 | 91.38998 | 842 ft | 91 kts | 204° |
| 2026-05-08 15:13 | 53.73893 | 91.38431 | 842 ft | 141 kts | 205° |
| 2026-05-08 15:14 | 53.72855 | 91.37633 | 998 ft | 178 kts | 206° |
| 2026-05-08 15:14 | 53.71666 | 91.36691 | 1536 ft | 195 kts | 207° |
| 2026-05-08 15:14 | 53.70527 | 91.35805 | 2546 ft | 176 kts | 207° |
| 2026-05-08 15:14 | 53.69441 | 91.34975 | 3220 ft | 172 kts | 208° |
| 2026-05-08 15:15 | 53.68449 | 91.33919 | 3761 ft | 168 kts | 237° |
| 2026-05-08 15:15 | 53.68030 | 91.32147 | 4318 ft | 165 kts | 266° |
| 2026-05-08 15:15 | 53.68165 | 91.30253 | 4779 ft | 171 kts | 291° |
| 2026-05-08 15:15 | 53.68852 | 91.28483 | 5114 ft | 188 kts | 316° |
| 2026-05-08 15:16 | 53.69990 | 91.27251 | 5476 ft | 207 kts | 338° |
| 2026-05-08 15:16 | 53.71498 | 91.26741 | 5778 ft | 233 kts | 359° |
| 2026-05-08 15:16 | 53.73127 | 91.27283 | 6233 ft | 253 kts | 17° |
| 2026-05-08 15:16 | 53.74876 | 91.28169 | 6728 ft | 271 kts | 13° |
| 2026-05-08 15:17 | 53.76719 | 91.28970 | 7506 ft | 277 kts | 13° |
| 2026-05-08 15:17 | 53.78569 | 91.29737 | 8367 ft | 280 kts | 13° |
| 2026-05-08 15:17 | 53.80483 | 91.30507 | 9210 ft | 284 kts | 13° |
| 2026-05-08 15:17 | 53.82404 | 91.31265 | 10005 ft | 290 kts | 14° |
| 2026-05-08 15:18 | 53.84380 | 91.32040 | 10875 ft | 292 kts | 13° |
| 2026-05-08 15:18 | 53.86362 | 91.32812 | 11729 ft | 295 kts | 12° |
| 2026-05-08 15:18 | 53.88352 | 91.33584 | 12526 ft | 298 kts | 12° |
| 2026-05-08 15:18 | 53.90362 | 91.34363 | 13319 ft | 300 kts | 11° |
| 2026-05-08 15:19 | 53.92399 | 91.35151 | 13985 ft | 304 kts | 11° |
| 2026-05-08 15:19 | 53.94478 | 91.35956 | 14614 ft | 310 kts | 11° |
| 2026-05-08 15:19 | 53.96589 | 91.36774 | 15237 ft | 314 kts | 10° |
| 2026-05-08 15:19 | 53.98726 | 91.37602 | 15854 ft | 319 kts | 10° |
| 2026-05-08 15:20 | 54.00904 | 91.38448 | 16477 ft | 323 kts | 10° |
| 2026-05-08 15:20 | 54.03086 | 91.39296 | 17095 ft | 328 kts | 9° |
| 2026-05-08 15:20 | 54.05326 | 91.40168 | 17727 ft | 332 kts | 9° |
| 2026-05-08 15:20 | 54.07576 | 91.41045 | 18357 ft | 335 kts | 9° |
| 2026-05-08 15:21 | 54.09874 | 91.41941 | 18990 ft | 339 kts | 9° |
| 2026-05-08 15:21 | 54.12173 | 91.42839 | 19624 ft | 342 kts | 9° |
| 2026-05-08 15:21 | 54.14508 | 91.43752 | 20270 ft | 345 kts | 9° |
| 2026-05-08 15:21 | 54.16848 | 91.44669 | 20914 ft | 347 kts | 9° |
| 2026-05-08 15:22 | 54.19229 | 91.45567 | 21568 ft | 348 kts | 6° |
| 2026-05-08 15:22 | 54.21605 | 91.46137 | 22208 ft | 347 kts | 2° |
| 2026-05-08 15:22 | 54.24018 | 91.46667 | 22860 ft | 348 kts | 3° |
| 2026-05-08 15:22 | 54.26417 | 91.47214 | 23509 ft | 348 kts | 3° |
| 2026-05-08 15:23 | 54.28781 | 91.47755 | 24162 ft | 347 kts | 3° |
| 2026-05-08 15:23 | 54.31160 | 91.48301 | 24831 ft | 345 kts | 3° |
| 2026-05-08 15:23 | 54.33528 | 91.48848 | 25498 ft | 343 kts | 2° |
| 2026-05-08 15:23 | 54.35912 | 91.49400 | 26169 ft | 340 kts | 2° |
| 2026-05-08 15:24 | 54.38220 | 91.49926 | 26825 ft | 336 kts | 1° |
| 2026-05-08 15:24 | 54.40584 | 91.50169 | 27020 ft | 342 kts | 355° |
| 2026-05-08 15:24 | 54.43016 | 91.50237 | 27034 ft | 355 kts | 356° |
| 2026-05-08 15:24 | 54.45513 | 91.50347 | 27034 ft | 368 kts | 357° |
| 2026-05-08 15:25 | 54.48145 | 91.50470 | 27035 ft | 382 kts | 357° |
| 2026-05-08 15:25 | 54.50834 | 91.50601 | 27031 ft | 395 kts | 357° |
| 2026-05-08 15:25 | 54.53671 | 91.50743 | 27031 ft | 408 kts | 358° |
| 2026-05-08 15:25 | 54.56499 | 91.50887 | 27028 ft | 416 kts | 358° |
| 2026-05-08 15:26 | 54.59425 | 91.51038 | 27012 ft | 417 kts | 358° |
| 2026-05-08 15:26 | 54.62318 | 91.51187 | 26592 ft | 421 kts | 358° |
| 2026-05-08 15:26 | 54.65272 | 91.51340 | 26137 ft | 419 kts | 358° |
| 2026-05-08 15:26 | 54.68148 | 91.51489 | 25693 ft | 415 kts | 358° |
| 2026-05-08 15:27 | 54.71029 | 91.51638 | 25261 ft | 414 kts | 358° |
| 2026-05-08 15:27 | 54.73895 | 91.51784 | 24827 ft | 414 kts | 358° |
| 2026-05-08 15:27 | 54.76763 | 91.51933 | 24382 ft | 411 kts | 358° |
| 2026-05-08 15:27 | 54.79612 | 91.52081 | 23953 ft | 408 kts | 358° |
| 2026-05-08 15:28 | 54.82444 | 91.52228 | 23528 ft | 405 kts | 358° |
| 2026-05-08 15:28 | 54.85260 | 91.52373 | 23113 ft | 403 kts | 358° |
| 2026-05-08 15:28 | 54.88069 | 91.52519 | 22693 ft | 401 kts | 358° |
| 2026-05-08 15:28 | 54.90819 | 91.52662 | 22278 ft | 400 kts | 358° |
| 2026-05-08 15:29 | 54.93594 | 91.52807 | 21854 ft | 397 kts | 359° |
| 2026-05-08 15:29 | 54.96374 | 91.52951 | 21436 ft | 395 kts | 358° |
| 2026-05-08 15:29 | 54.99069 | 91.53075 | 20971 ft | 387 kts | 358° |
| 2026-05-08 15:29 | 55.01724 | 91.53194 | 20744 ft | 366 kts | 358° |
| 2026-05-08 15:30 | 55.04184 | 91.53306 | 20320 ft | 350 kts | 358° |
| 2026-05-08 15:30 | 55.06628 | 91.53411 | 19355 ft | 349 kts | 358° |
| 2026-05-08 15:30 | 55.09016 | 91.53516 | 18558 ft | 344 kts | 358° |
| 2026-05-08 15:30 | 55.11383 | 91.53619 | 17704 ft | 340 kts | 358° |
| 2026-05-08 15:31 | 55.12352 | 91.53661 | 17351 ft | 339 kts | 358° |
| 2026-05-08 15:31 | 55.14653 | 91.53765 | 16968 ft | 322 kts | 358° |
| 2026-05-08 15:31 | 55.16910 | 91.53864 | 17010 ft | 330 kts | 358° |
| 2026-05-08 15:31 | 55.19248 | 91.53964 | 16983 ft | 340 kts | 358° |
| 2026-05-08 15:32 | 55.21596 | 91.54069 | 16984 ft | 337 kts | 358° |
| 2026-05-08 15:32 | 55.23928 | 91.54175 | 16980 ft | 335 kts | 358° |
| 2026-05-08 15:32 | 55.26274 | 91.54279 | 16977 ft | 336 kts | 358° |
| 2026-05-08 15:32 | 55.28628 | 91.54384 | 16979 ft | 337 kts | 358° |
| 2026-05-08 15:33 | 55.30976 | 91.54489 | 16974 ft | 337 kts | 358° |
| 2026-05-08 15:33 | 55.33292 | 91.54593 | 16974 ft | 336 kts | 358° |
| 2026-05-08 15:33 | 55.35644 | 91.54698 | 16975 ft | 336 kts | 358° |
| 2026-05-08 15:33 | 55.37979 | 91.54803 | 16975 ft | 337 kts | 358° |
| 2026-05-08 15:34 | 55.40297 | 91.55300 | 16985 ft | 341 kts | 12° |
| 2026-05-08 15:34 | 55.42480 | 91.56965 | 16946 ft | 351 kts | 28° |
| 2026-05-08 15:34 | 55.44489 | 91.59810 | 16440 ft | 387 kts | 41° |
| 2026-05-08 15:34 | 55.46389 | 91.63225 | 15768 ft | 395 kts | 42° |
| 2026-05-08 15:35 | 55.48299 | 91.66628 | 15027 ft | 395 kts | 43° |
| 2026-05-08 15:35 | 55.50231 | 91.70077 | 14333 ft | 392 kts | 43° |
| 2026-05-08 15:35 | 55.52100 | 91.73421 | 14228 ft | 374 kts | 43° |
| 2026-05-08 15:35 | 55.53924 | 91.76682 | 13633 ft | 372 kts | 43° |
| 2026-05-08 15:36 | 55.55299 | 91.79144 | 13245 ft | 369 kts | 43° |
| 2026-05-08 15:36 | 55.57104 | 91.82380 | 12685 ft | 366 kts | 43° |
| 2026-05-08 15:36 | 55.58861 | 91.85535 | 12122 ft | 359 kts | 43° |
| 2026-05-08 15:36 | 55.60558 | 91.88589 | 11486 ft | 337 kts | 43° |
| 2026-05-08 15:37 | 55.62130 | 91.91420 | 10970 ft | 318 kts | 42° |
| 2026-05-08 15:37 | 55.63649 | 91.94160 | 10609 ft | 297 kts | 42° |
| 2026-05-08 15:37 | 55.65074 | 91.96728 | 10542 ft | 297 kts | 42° |
| 2026-05-08 15:37 | 55.66541 | 91.99368 | 10361 ft | 306 kts | 42° |
| 2026-05-08 15:38 | 55.68047 | 92.02088 | 10045 ft | 306 kts | 42° |
| 2026-05-08 15:38 | 55.69531 | 92.04777 | 9663 ft | 304 kts | 42° |
| 2026-05-08 15:38 | 55.70995 | 92.07431 | 9287 ft | 302 kts | 42° |
| 2026-05-08 15:38 | 55.72461 | 92.10090 | 8977 ft | 297 kts | 42° |
| 2026-05-08 15:39 | 55.73863 | 92.12640 | 8962 ft | 284 kts | 41° |
| 2026-05-08 15:39 | 55.75258 | 92.15164 | 8978 ft | 289 kts | 40° |
| 2026-05-08 15:39 | 55.76832 | 92.17368 | 8987 ft | 291 kts | 29° |
| 2026-05-08 15:39 | 55.78525 | 92.19353 | 8974 ft | 290 kts | 30° |
| 2026-05-08 15:40 | 55.80187 | 92.21333 | 8973 ft | 288 kts | 30° |
| 2026-05-08 15:40 | 55.81862 | 92.23321 | 8972 ft | 290 kts | 30° |
| 2026-05-08 15:40 | 55.83551 | 92.25324 | 8972 ft | 292 kts | 30° |
| 2026-05-08 15:40 | 55.85226 | 92.27315 | 8966 ft | 290 kts | 30° |
| 2026-05-08 15:41 | 55.85965 | 92.28194 | 8968 ft | 290 kts | 30° |
| 2026-05-08 15:41 | 55.87638 | 92.30183 | 8967 ft | 290 kts | 30° |
| 2026-05-08 15:41 | 55.89330 | 92.32196 | 8958 ft | 291 kts | 30° |
| 2026-05-08 15:41 | 55.90993 | 92.34177 | 8967 ft | 291 kts | 30° |
| 2026-05-08 15:42 | 55.92698 | 92.36211 | 8963 ft | 290 kts | 30° |
| 2026-05-08 15:42 | 55.94374 | 92.38212 | 8962 ft | 292 kts | 30° |
| 2026-05-08 15:42 | 55.96086 | 92.40254 | 8967 ft | 302 kts | 30° |
| 2026-05-08 15:42 | 55.97865 | 92.42381 | 8634 ft | 314 kts | 30° |
| 2026-05-08 15:43 | 55.99658 | 92.44530 | 7966 ft | 309 kts | 30° |
| 2026-05-08 15:43 | 56.01355 | 92.46748 | 7333 ft | 301 kts | 42° |
| 2026-05-08 15:43 | 56.02491 | 92.49822 | 6802 ft | 300 kts | 69° |
| 2026-05-08 15:43 | 56.02854 | 92.53504 | 6496 ft | 305 kts | 86° |
| 2026-05-08 15:44 | 56.02714 | 92.57310 | 6128 ft | 307 kts | 98° |
| 2026-05-08 15:44 | 56.02276 | 92.61017 | 5754 ft | 304 kts | 97° |
| 2026-05-08 15:44 | 56.02359 | 92.64735 | 5391 ft | 296 kts | 71° |
| 2026-05-08 15:44 | 56.03298 | 92.67916 | 5046 ft | 287 kts | 46° |
| 2026-05-08 15:45 | 56.04745 | 92.70287 | 4614 ft | 284 kts | 34° |
| 2026-05-08 15:45 | 56.06416 | 92.72263 | 4114 ft | 285 kts | 28° |
| 2026-05-08 15:45 | 56.08185 | 92.73576 | 3565 ft | 273 kts | 6° |
| 2026-05-08 15:45 | 56.09978 | 92.73331 | 3122 ft | 253 kts | 337° |
| 2026-05-08 15:46 | 56.10650 | 92.72720 | 3039 ft | 241 kts | 323° |
| 2026-05-08 15:46 | 56.11738 | 92.70651 | 2999 ft | 215 kts | 309° |
| 2026-05-08 15:46 | 56.12608 | 92.68640 | 2921 ft | 202 kts | 306° |
| 2026-05-08 15:46 | 56.13260 | 92.66354 | 2651 ft | 202 kts | 292° |
| 2026-05-08 15:47 | 56.13772 | 92.64076 | 2376 ft | 194 kts | 292° |
| 2026-05-08 15:47 | 56.14276 | 92.61958 | 2158 ft | 178 kts | 293° |
| 2026-05-08 15:47 | 56.14745 | 92.59995 | 1936 ft | 164 kts | 292° |
| 2026-05-08 15:47 | 56.15164 | 92.58207 | 1786 ft | 146 kts | 296° |
| 2026-05-08 15:48 | 56.15923 | 92.55059 | 1374 ft | 131 kts | 289° |
| 2026-05-08 15:48 | 56.16279 | 92.53532 | 1163 ft | 133 kts | 297° |
| 2026-05-08 15:48 | 56.16652 | 92.52012 | 1005 ft | 132 kts | 291° |
| 2026-05-08 15:49 | 56.17000 | 92.50526 | 952 ft | 115 kts | 294° |
| 2026-05-08 15:49 | 56.17249 | 92.49474 | 952 ft | 72 kts | 294° |
| 2026-05-08 15:49 | 56.17403 | 92.48865 | 952 ft | 35 kts | 304° |
| 2026-05-08 15:49 | 56.17543 | 92.48635 | 951 ft | 19 kts | 324° |
| 2026-05-08 15:50 | 56.17626 | 92.48528 | 951 ft | 12 kts | 324° |
| 2026-05-08 15:50 | 56.17645 | 92.48502 | 951 ft | 0 kts | 324° |
| 2026-05-08 15:51 | 56.17650 | 92.48495 | 951 ft | 3 kts | 324° |
| 2026-05-08 15:51 | 56.17678 | 92.48458 | 951 ft | 6 kts | 324° |
| 2026-05-08 15:51 | 56.17717 | 92.48409 | 951 ft | 7 kts | 332° |
| 2026-05-08 15:51 | 56.17767 | 92.48399 | 951 ft | 7 kts | 14° |
| 2026-05-08 15:52 | 56.17817 | 92.48433 | 951 ft | 8 kts | 24° |
| 2026-05-08 15:52 | 56.17858 | 92.48491 | 951 ft | 7 kts | 69° |
| 2026-05-08 15:52 | 56.17852 | 92.48574 | 951 ft | 4 kts | 114° |
| 2026-05-08 15:52 | 56.17842 | 92.48612 | 951 ft | 3 kts | 115° |
| 2026-05-08 15:53 | 56.17835 | 92.48663 | 951 ft | 2 kts | 89° |
| 2026-05-08 15:53 | 56.17844 | 92.48690 | 951 ft | 3 kts | 35° |
| 2026-05-08 15:53 | 56.17873 | 92.48712 | 951 ft | 5 kts | 23° |
| 2026-05-08 15:53 | 56.17897 | 92.48730 | 951 ft | 1 kts | 23° |
| 2026-05-08 15:54 | 56.17899 | 92.48731 | 951 ft | 0 kts | 23° |